sensor_id;sensor_type;location;lat;lon;timestamp;pressure;altitude;pressure_sealevel;temperature;humidity
44079;BME280;29744;49.078;12.878;2024-02-21T00:00:33;97286.00;;;13.83;38.66
44079;BME280;29744;49.078;12.878;2024-02-21T00:05:33;97272.53;;;13.83;38.64
44079;BME280;29744;49.078;12.878;2024-02-21T00:10:33;97277.91;;;13.83;38.53
44079;BME280;29744;49.078;12.878;2024-02-21T00:15:35;97270.13;;;13.81;38.94
44079;BME280;29744;49.078;12.878;2024-02-21T00:20:35;97278.50;;;13.80;38.34
44079;BME280;29744;49.078;12.878;2024-02-21T00:25:35;97273.94;;;13.80;38.62
44079;BME280;29744;49.078;12.878;2024-02-21T00:30:36;97273.09;;;13.80;38.58
44079;BME280;29744;49.078;12.878;2024-02-21T00:35:38;97268.81;;;13.79;38.80
44079;BME280;29744;49.078;12.878;2024-02-21T00:40:38;97257.53;;;13.77;38.78
44079;BME280;29744;49.078;12.878;2024-02-21T00:45:38;97255.63;;;13.77;38.69
44079;BME280;29744;49.078;12.878;2024-02-21T00:50:39;97257.53;;;13.77;38.47
44079;BME280;29744;49.078;12.878;2024-02-21T00:55:39;97256.72;;;13.76;38.45
44079;BME280;29744;49.078;12.878;2024-02-21T01:00:40;97234.34;;;13.76;38.72
44079;BME280;29744;49.078;12.878;2024-02-21T01:05:40;97238.94;;;13.75;38.67
44079;BME280;29744;49.078;12.878;2024-02-21T01:10:41;97230.06;;;13.75;38.43
44079;BME280;29744;49.078;12.878;2024-02-21T01:15:41;97221.16;;;13.74;38.89
44079;BME280;29744;49.078;12.878;2024-02-21T01:20:41;97220.38;;;13.74;38.72
44079;BME280;29744;49.078;12.878;2024-02-21T01:25:42;97214.97;;;13.74;38.59
44079;BME280;29744;49.078;12.878;2024-02-21T01:30:42;97206.69;;;13.70;38.69
44079;BME280;29744;49.078;12.878;2024-02-21T01:35:43;97214.47;;;13.72;38.87
44079;BME280;29744;49.078;12.878;2024-02-21T01:40:43;97205.59;;;13.71;38.42
44079;BME280;29744;49.078;12.878;2024-02-21T01:45:47;97199.41;;;13.71;38.40
44079;BME280;29744;49.078;12.878;2024-02-21T01:50:49;97194.00;;;13.71;38.48
44079;BME280;29744;49.078;12.878;2024-02-21T01:55:50;97187.03;;;13.70;38.59
44079;BME280;29744;49.078;12.878;2024-02-21T02:00:50;97184.34;;;13.70;38.73
44079;BME280;29744;49.078;12.878;2024-02-21T02:05:50;97186.22;;;13.69;38.83
44079;BME280;29744;49.078;12.878;2024-02-21T02:10:51;97176.25;;;13.70;38.61
44079;BME280;29744;49.078;12.878;2024-02-21T02:15:52;97171.94;;;13.69;38.70
44079;BME280;29744;49.078;12.878;2024-02-21T02:20:52;97169.25;;;13.69;38.63
44079;BME280;29744;49.078;12.878;2024-02-21T02:25:53;97162.28;;;13.68;38.50
44079;BME280;29744;49.078;12.878;2024-02-21T02:30:53;97157.97;;;13.67;38.52
44079;BME280;29744;49.078;12.878;2024-02-21T02:35:54;97138.31;;;13.66;38.92
44079;BME280;29744;49.078;12.878;2024-02-21T02:40:55;97139.09;;;13.67;38.43
44079;BME280;29744;49.078;12.878;2024-02-21T02:45:55;97132.91;;;13.66;38.54
44079;BME280;29744;49.078;12.878;2024-02-21T02:50:55;97134.03;;;13.65;38.44
44079;BME280;29744;49.078;12.878;2024-02-21T02:55:56;97125.13;;;13.65;38.85
44079;BME280;29744;49.078;12.878;2024-02-21T03:00:56;97126.22;;;13.64;39.04
44079;BME280;29744;49.078;12.878;2024-02-21T03:05:56;97124.34;;;13.64;38.94
44079;BME280;29744;49.078;12.878;2024-02-21T03:10:57;97117.34;;;13.63;38.67
44079;BME280;29744;49.078;12.878;2024-02-21T03:15:57;97103.88;;;13.63;38.67
44079;BME280;29744;49.078;12.878;2024-02-21T03:20:57;97106.88;;;13.62;38.51
44079;BME280;29744;49.078;12.878;2024-02-21T03:25:58;97101.47;;;13.62;39.01
44079;BME280;29744;49.078;12.878;2024-02-21T03:30:58;97119.56;;;13.61;38.94
44079;BME280;29744;49.078;12.878;2024-02-21T03:35:58;97124.13;;;13.61;38.50
44079;BME280;29744;49.078;12.878;2024-02-21T03:40:59;97120.66;;;13.60;38.44
44079;BME280;29744;49.078;12.878;2024-02-21T03:45:59;97122.53;;;13.60;38.99
44079;BME280;29744;49.078;12.878;2024-02-21T03:50:59;97125.25;;;13.60;38.83
44079;BME280;29744;49.078;12.878;2024-02-21T03:56:03;97117.16;;;13.60;38.60
44079;BME280;29744;49.078;12.878;2024-02-21T04:01:04;97105.56;;;13.59;38.67
44079;BME280;29744;49.078;12.878;2024-02-21T04:06:04;97105.88;;;13.58;38.91
44079;BME280;29744;49.078;12.878;2024-02-21T04:11:05;97095.09;;;13.58;38.86
44079;BME280;29744;49.078;12.878;2024-02-21T04:16:05;97102.38;;;13.57;38.98
44079;BME280;29744;49.078;12.878;2024-02-21T04:21:06;97100.78;;;13.56;38.51
44079;BME280;29744;49.078;12.878;2024-02-21T04:26:06;97105.38;;;13.55;39.02
44079;BME280;29744;49.078;12.878;2024-02-21T04:31:07;97098.09;;;13.56;38.85
44079;BME280;29744;49.078;12.878;2024-02-21T04:36:07;97101.88;;;13.55;38.76
44079;BME280;29744;49.078;12.878;2024-02-21T04:41:07;97089.72;;;13.58;38.52
44079;BME280;29744;49.078;12.878;2024-02-21T04:46:08;97091.31;;;13.59;38.88
44079;BME280;29744;49.078;12.878;2024-02-21T04:51:08;97078.03;;;13.62;38.79
44079;BME280;29744;49.078;12.878;2024-02-21T04:56:09;97080.59;;;13.67;38.86
44079;BME280;29744;49.078;12.878;2024-02-21T05:01:10;97078.59;;;13.73;38.48
44079;BME280;29744;49.078;12.878;2024-02-21T05:06:10;97072.00;;;13.79;38.38
44079;BME280;29744;49.078;12.878;2024-02-21T05:11:10;97069.41;;;13.88;38.45
44079;BME280;29744;49.078;12.878;2024-02-21T05:16:11;97064.09;;;13.96;38.97
44079;BME280;29744;49.078;12.878;2024-02-21T05:21:11;97039.09;;;14.04;38.66
44079;BME280;29744;49.078;12.878;2024-02-21T05:26:11;97033.47;;;14.14;38.64
44079;BME280;29744;49.078;12.878;2024-02-21T05:31:11;97043.56;;;14.23;38.58
44079;BME280;29744;49.078;12.878;2024-02-21T05:36:15;97040.91;;;14.31;38.10
44079;BME280;29744;49.078;12.878;2024-02-21T05:41:15;97031.28;;;14.39;38.61
44079;BME280;29744;49.078;12.878;2024-02-21T05:46:19;97024.66;;;14.45;38.03
44079;BME280;29744;49.078;12.878;2024-02-21T05:51:19;97015.63;;;14.49;38.16
44079;BME280;29744;49.078;12.878;2024-02-21T05:56:19;97008.81;;;14.52;38.36
44079;BME280;29744;49.078;12.878;2024-02-21T06:01:20;97000.09;;;14.55;38.18
44079;BME280;29744;49.078;12.878;2024-02-21T06:06:21;96996.78;;;14.58;38.15
44079;BME280;29744;49.078;12.878;2024-02-21T06:11:22;96992.97;;;14.59;37.95
44079;BME280;29744;49.078;12.878;2024-02-21T06:16:22;96986.47;;;14.60;37.82
44079;BME280;29744;49.078;12.878;2024-02-21T06:21:22;96988.06;;;14.61;38.07
44079;BME280;29744;49.078;12.878;2024-02-21T06:26:23;96991.56;;;14.62;37.60
44079;BME280;29744;49.078;12.878;2024-02-21T06:31:23;97007.75;;;14.62;38.01
44079;BME280;29744;49.078;12.878;2024-02-21T06:41:23;97013.16;;;14.62;38.00
44079;BME280;29744;49.078;12.878;2024-02-21T06:46:27;97009.66;;;14.61;37.87
44079;BME280;29744;49.078;12.878;2024-02-21T06:51:31;97009.97;;;14.60;37.53
44079;BME280;29744;49.078;12.878;2024-02-21T06:56:32;97022.66;;;14.59;37.98
44079;BME280;29744;49.078;12.878;2024-02-21T07:01:32;97025.38;;;14.59;37.65
44079;BME280;29744;49.078;12.878;2024-02-21T07:06:32;97017.59;;;14.58;37.79
44079;BME280;29744;49.078;12.878;2024-02-21T07:11:33;97024.09;;;14.57;37.78
44079;BME280;29744;49.078;12.878;2024-02-21T07:16:33;97026.78;;;14.57;37.85
44079;BME280;29744;49.078;12.878;2024-02-21T07:21:34;97018.69;;;14.57;37.85
44079;BME280;29744;49.078;12.878;2024-02-21T07:26:34;97007.09;;;14.56;38.05
44079;BME280;29744;49.078;12.878;2024-02-21T07:31:41;97007.41;;;14.55;37.72
44079;BME280;29744;49.078;12.878;2024-02-21T07:36:41;97003.06;;;14.45;38.11
44079;BME280;29744;49.078;12.878;2024-02-21T07:41:43;97015.31;;;14.51;38.10
44079;BME280;29744;49.078;12.878;2024-02-21T07:46:46;97011.81;;;14.50;37.95
44079;BME280;29744;49.078;12.878;2024-02-21T07:51:46;97005.63;;;14.50;37.68
44079;BME280;29744;49.078;12.878;2024-02-21T07:56:47;97014.03;;;14.48;37.88
44079;BME280;29744;49.078;12.878;2024-02-21T08:01:47;97007.34;;;14.46;37.77
44079;BME280;29744;49.078;12.878;2024-02-21T08:06:52;97005.47;;;14.46;37.92
44079;BME280;29744;49.078;12.878;2024-02-21T08:11:54;97003.88;;;14.45;37.55
44079;BME280;29744;49.078;12.878;2024-02-21T08:16:54;97001.47;;;14.44;37.77
44079;BME280;29744;49.078;12.878;2024-02-21T08:21:55;96980.19;;;14.42;37.70
44079;BME280;29744;49.078;12.878;2024-02-21T08:26:56;96973.50;;;14.40;37.90
44079;BME280;29744;49.078;12.878;2024-02-21T08:31:56;96975.41;;;14.39;37.57
44079;BME280;29744;49.078;12.878;2024-02-21T08:36:56;96967.63;;;14.38;37.87
44079;BME280;29744;49.078;12.878;2024-02-21T08:41:56;96962.22;;;14.38;37.85
44079;BME280;29744;49.078;12.878;2024-02-21T08:46:57;96966.34;;;14.35;38.16
44079;BME280;29744;49.078;12.878;2024-02-21T08:51:57;96957.44;;;14.35;37.80
44079;BME280;29744;49.078;12.878;2024-02-21T08:56:58;96953.97;;;14.34;37.82
44079;BME280;29744;49.078;12.878;2024-02-21T09:01:58;96938.09;;;14.33;37.94
44079;BME280;29744;49.078;12.878;2024-02-21T09:06:59;96945.38;;;14.32;37.91
44079;BME280;29744;49.078;12.878;2024-02-21T09:11:59;96944.88;;;14.30;38.05
44079;BME280;29744;49.078;12.878;2024-02-21T09:17:05;96945.19;;;14.29;38.31
44079;BME280;29744;49.078;12.878;2024-02-21T09:22:06;96937.41;;;14.27;37.88
44079;BME280;29744;49.078;12.878;2024-02-21T09:27:06;96935.03;;;14.26;38.08
44079;BME280;29744;49.078;12.878;2024-02-21T09:32:06;96928.03;;;14.25;38.30
44079;BME280;29744;49.078;12.878;2024-02-21T09:37:07;96914.88;;;14.23;37.89
44079;BME280;29744;49.078;12.878;2024-02-21T09:42:11;96907.88;;;14.22;38.04
44079;BME280;29744;49.078;12.878;2024-02-21T09:47:19;96917.84;;;14.22;38.36
44079;BME280;29744;49.078;12.878;2024-02-21T09:52:22;96909.25;;;14.19;38.05
44079;BME280;29744;49.078;12.878;2024-02-21T09:57:23;96898.78;;;14.18;38.21
44079;BME280;29744;49.078;12.878;2024-02-21T10:02:25;96895.28;;;14.17;38.24
44079;BME280;29744;49.078;12.878;2024-02-21T10:07:25;96887.50;;;14.16;38.02
44079;BME280;29744;49.078;12.878;2024-02-21T10:12:26;96885.13;;;14.14;38.21
44079;BME280;29744;49.078;12.878;2024-02-21T10:17:26;96889.72;;;14.14;38.10
44079;BME280;29744;49.078;12.878;2024-02-21T10:22:26;96882.41;;;14.14;38.03
44079;BME280;29744;49.078;12.878;2024-02-21T10:27:28;96887.31;;;14.12;38.25
44079;BME280;29744;49.078;12.878;2024-02-21T10:32:28;96878.44;;;14.12;38.33
44079;BME280;29744;49.078;12.878;2024-02-21T10:37:30;96865.25;;;14.10;38.32
44079;BME280;29744;49.078;12.878;2024-02-21T10:42:32;96859.88;;;14.10;38.08
44079;BME280;29744;49.078;12.878;2024-02-21T10:47:36;96853.69;;;14.10;38.47
44079;BME280;29744;49.078;12.878;2024-02-21T10:53:05;96850.00;;;14.06;38.43
44079;BME280;29744;49.078;12.878;2024-02-21T10:58:10;96840.50;;;14.08;38.35
44079;BME280;29744;49.078;12.878;2024-02-21T11:03:11;96829.22;;;14.06;38.15
44079;BME280;29744;49.078;12.878;2024-02-21T11:08:13;96806.06;;;14.05;38.05
44079;BME280;29744;49.078;12.878;2024-02-21T11:13:14;96799.88;;;14.05;38.52
44079;BME280;29744;49.078;12.878;2024-02-21T11:18:23;96801.78;;;14.04;38.22
44079;BME280;29744;49.078;12.878;2024-02-21T11:23:25;96790.19;;;14.04;38.39
44079;BME280;29744;49.078;12.878;2024-02-21T11:28:26;96773.53;;;14.02;38.23
44079;BME280;29744;49.078;12.878;2024-02-21T11:33:26;96772.75;;;14.01;38.29
44079;BME280;29744;49.078;12.878;2024-02-21T11:38:26;96765.75;;;14.00;38.12
44079;BME280;29744;49.078;12.878;2024-02-21T11:43:27;96754.19;;;14.00;38.60
44079;BME280;29744;49.078;12.878;2024-02-21T11:48:27;96744.19;;;14.00;38.76
44079;BME280;29744;49.078;12.878;2024-02-21T11:53:27;96731.81;;;13.99;38.47
44079;BME280;29744;49.078;12.878;2024-02-21T11:58:31;96714.84;;;13.99;38.26
44079;BME280;29744;49.078;12.878;2024-02-21T12:03:31;96714.84;;;13.99;38.12
44079;BME280;29744;49.078;12.878;2024-02-21T12:08:44;96695.47;;;13.97;38.46
44079;BME280;29744;49.078;12.878;2024-02-21T12:13:45;96683.91;;;13.96;38.43
44079;BME280;29744;49.078;12.878;2024-02-21T12:18:45;96674.22;;;13.95;38.42
44079;BME280;29744;49.078;12.878;2024-02-21T12:23:46;96676.13;;;13.95;38.57
44079;BME280;29744;49.078;12.878;2024-02-21T12:28:47;96665.34;;;13.95;38.46
44079;BME280;29744;49.078;12.878;2024-02-21T12:33:47;96663.75;;;13.94;38.71
44079;BME280;29744;49.078;12.878;2024-02-21T12:38:48;96659.16;;;13.94;38.71
44079;BME280;29744;49.078;12.878;2024-02-21T12:43:49;96649.47;;;13.93;38.25
44079;BME280;29744;49.078;12.878;2024-02-21T12:48:50;96626.63;;;13.91;37.07
44079;BME280;29744;49.078;12.878;2024-02-21T12:53:50;96629.16;;;13.87;36.69
44079;BME280;29744;49.078;12.878;2024-02-21T12:58:50;96617.09;;;13.84;37.04
44079;BME280;29744;49.078;12.878;2024-02-21T13:03:51;96620.13;;;13.83;37.31
44079;BME280;29744;49.078;12.878;2024-02-21T13:08:51;96609.34;;;13.83;36.91
44079;BME280;29744;49.078;12.878;2024-02-21T13:13:51;96603.94;;;13.83;37.30
44079;BME280;29744;49.078;12.878;2024-02-21T13:18:52;96596.66;;;13.83;37.16
44079;BME280;29744;49.078;12.878;2024-02-21T13:23:52;96578.56;;;13.84;37.51
44079;BME280;29744;49.078;12.878;2024-02-21T13:28:53;96567.78;;;13.84;37.40
44079;BME280;29744;49.078;12.878;2024-02-21T13:33:53;96561.59;;;13.83;37.15
44079;BME280;29744;49.078;12.878;2024-02-21T13:38:54;96551.63;;;13.84;37.16
44079;BME280;29744;49.078;12.878;2024-02-21T13:43:54;96546.22;;;13.84;37.23
44079;BME280;29744;49.078;12.878;2024-02-21T13:49:03;96527.34;;;13.84;37.33
44079;BME280;29744;49.078;12.878;2024-02-21T13:54:06;96533.53;;;13.84;37.30
44079;BME280;29744;49.078;12.878;2024-02-21T13:59:09;96533.53;;;13.84;37.33
44079;BME280;29744;49.078;12.878;2024-02-21T14:04:09;96515.47;;;13.85;37.54
44079;BME280;29744;49.078;12.878;2024-02-21T14:09:10;96512.78;;;13.85;37.37
44079;BME280;29744;49.078;12.878;2024-02-21T14:14:11;96493.91;;;13.85;37.74
44079;BME280;29744;49.078;12.878;2024-02-21T14:19:11;96488.50;;;13.85;37.80
44079;BME280;29744;49.078;12.878;2024-02-21T14:24:11;96473.13;;;13.85;37.54
44079;BME280;29744;49.078;12.878;2024-02-21T14:29:12;96466.94;;;13.85;37.59
44079;BME280;29744;49.078;12.878;2024-02-21T14:34:13;96468.06;;;13.84;38.09
44079;BME280;29744;49.078;12.878;2024-02-21T14:39:13;96455.38;;;13.84;38.04
44079;BME280;29744;49.078;12.878;2024-02-21T14:44:13;96458.06;;;13.84;37.73
44079;BME280;29744;49.078;12.878;2024-02-21T14:49:14;96453.00;;;13.83;37.98
44079;BME280;29744;49.078;12.878;2024-02-21T14:54:14;96446.50;;;13.84;37.80
44079;BME280;29744;49.078;12.878;2024-02-21T14:59:15;96446.50;;;13.84;37.91
44079;BME280;29744;49.078;12.878;2024-02-21T15:04:16;96456.47;;;13.83;37.57
44079;BME280;29744;49.078;12.878;2024-02-21T15:09:17;96461.06;;;13.83;38.14
44079;BME280;29744;49.078;12.878;2024-02-21T15:14:19;96459.50;;;13.82;37.71
44079;BME280;29744;49.078;12.878;2024-02-21T15:19:20;96450.09;;;13.79;37.79
44079;BME280;29744;49.078;12.878;2024-02-21T15:24:20;96457.13;;;13.80;37.65
44079;BME280;29744;49.078;12.878;2024-02-21T15:29:20;96455.22;;;13.81;37.68
44079;BME280;29744;49.078;12.878;2024-02-21T15:34:23;96443.63;;;13.80;38.02
44079;BME280;29744;49.078;12.878;2024-02-21T15:39:23;96437.41;;;13.80;37.69
44079;BME280;29744;49.078;12.878;2024-02-21T15:44:26;96427.47;;;13.80;37.74
44079;BME280;29744;49.078;12.878;2024-02-21T15:49:27;96414.28;;;13.79;37.77
44079;BME280;29744;49.078;12.878;2024-02-21T15:54:27;96418.09;;;13.78;38.01
44079;BME280;29744;49.078;12.878;2024-02-21T15:59:27;96412.69;;;13.78;37.94
44079;BME280;29744;49.078;12.878;2024-02-21T16:04:28;96411.09;;;13.77;38.19
44079;BME280;29744;49.078;12.878;2024-02-21T16:09:29;96408.41;;;13.77;38.24
44079;BME280;29744;49.078;12.878;2024-02-21T16:14:31;96409.22;;;13.77;37.84
44079;BME280;29744;49.078;12.878;2024-02-21T16:19:32;96385.75;;;13.78;38.42
44079;BME280;29744;49.078;12.878;2024-02-21T16:24:32;96387.63;;;13.77;37.76
44079;BME280;29744;49.078;12.878;2024-02-21T16:29:32;96389.22;;;13.78;38.08
44079;BME280;29744;49.078;12.878;2024-02-21T16:34:33;96376.25;;;13.80;37.80
44079;BME280;29744;49.078;12.878;2024-02-21T16:39:33;96368.97;;;13.81;38.04
44079;BME280;29744;49.078;12.878;2024-02-21T16:44:34;96368.97;;;13.81;38.04
44079;BME280;29744;49.078;12.878;2024-02-21T16:49:35;96366.72;;;13.83;38.34
44079;BME280;29744;49.078;12.878;2024-02-21T16:54:35;96362.94;;;13.84;37.84
44079;BME280;29744;49.078;12.878;2024-02-21T16:59:36;96356.41;;;13.85;38.14
44079;BME280;29744;49.078;12.878;2024-02-21T17:04:37;96351.81;;;13.85;38.13
44079;BME280;29744;49.078;12.878;2024-02-21T17:09:38;96344.53;;;13.86;37.76
44079;BME280;29744;49.078;12.878;2024-02-21T17:14:38;96345.31;;;13.86;38.19
44079;BME280;29744;49.078;12.878;2024-02-21T17:19:39;96336.91;;;13.88;37.95
44079;BME280;29744;49.078;12.878;2024-02-21T17:24:40;96331.53;;;13.88;38.13
44079;BME280;29744;49.078;12.878;2024-02-21T17:29:40;96319.94;;;13.88;38.32
44079;BME280;29744;49.078;12.878;2024-02-21T17:34:40;96323.44;;;13.88;38.39
44079;BME280;29744;49.078;12.878;2024-02-21T17:39:41;96314.56;;;13.88;38.26
44079;BME280;29744;49.078;12.878;2024-02-21T17:44:42;96302.66;;;13.89;37.76
44079;BME280;29744;49.078;12.878;2024-02-21T17:49:47;96305.34;;;13.89;37.84
44079;BME280;29744;49.078;12.878;2024-02-21T17:54:47;96299.50;;;13.86;37.99
44079;BME280;29744;49.078;12.878;2024-02-21T17:59:48;96286.00;;;13.86;37.92
44079;BME280;29744;49.078;12.878;2024-02-21T18:04:48;96285.22;;;13.86;37.65
44079;BME280;29744;49.078;12.878;2024-02-21T18:09:49;96279.84;;;13.86;37.84
44079;BME280;29744;49.078;12.878;2024-02-21T18:14:50;96266.34;;;13.86;38.01
44079;BME280;29744;49.078;12.878;2024-02-21T18:19:51;96265.25;;;13.87;37.94
44079;BME280;29744;49.078;12.878;2024-02-21T18:24:51;96250.66;;;13.88;38.22
44079;BME280;29744;49.078;12.878;2024-02-21T18:29:51;96244.94;;;13.90;38.33
44079;BME280;29744;49.078;12.878;2024-02-21T18:34:51;96237.63;;;13.90;38.35
44079;BME280;29744;49.078;12.878;2024-02-21T18:39:52;96228.44;;;13.91;38.11
44079;BME280;29744;49.078;12.878;2024-02-21T18:44:52;96229.22;;;13.92;38.30
44079;BME280;29744;49.078;12.878;2024-02-21T18:49:54;96228.91;;;13.93;38.20
44079;BME280;29744;49.078;12.878;2024-02-21T18:54:54;96222.72;;;13.93;37.79
44079;BME280;29744;49.078;12.878;2024-02-21T18:59:54;96213.50;;;13.94;37.72
44079;BME280;29744;49.078;12.878;2024-02-21T19:04:55;96212.41;;;13.95;37.94
44079;BME280;29744;49.078;12.878;2024-02-21T19:09:55;96206.22;;;13.94;38.17
44079;BME280;29744;49.078;12.878;2024-02-21T19:14:55;96200.81;;;13.94;38.04
44079;BME280;29744;49.078;12.878;2024-02-21T19:19:56;96197.03;;;13.95;38.24
44079;BME280;29744;49.078;12.878;2024-02-21T19:24:56;96202.41;;;13.95;38.10
44079;BME280;29744;49.078;12.878;2024-02-21T19:30:00;96189.72;;;13.96;37.71
44079;BME280;29744;49.078;12.878;2024-02-21T19:35:00;96195.91;;;13.96;37.84
44079;BME280;29744;49.078;12.878;2024-02-21T19:40:01;96187.03;;;13.96;38.16
44079;BME280;29744;49.078;12.878;2024-02-21T19:45:04;96192.41;;;13.96;37.96
44079;BME280;29744;49.078;12.878;2024-02-21T19:50:05;96173.53;;;13.96;37.72
44079;BME280;29744;49.078;12.878;2024-02-21T19:55:05;96181.97;;;13.94;38.07
44079;BME280;29744;49.078;12.878;2024-02-21T20:00:06;96180.06;;;13.95;38.16
44079;BME280;29744;49.078;12.878;2024-02-21T20:05:07;96168.81;;;13.93;37.79
44079;BME280;29744;49.078;12.878;2024-02-21T20:10:07;96146.44;;;13.92;37.84
44079;BME280;29744;49.078;12.878;2024-02-21T20:15:09;96141.84;;;13.93;37.70
44079;BME280;29744;49.078;12.878;2024-02-21T20:20:11;96132.19;;;13.92;37.79
44079;BME280;29744;49.078;12.878;2024-02-21T20:25:11;96135.19;;;13.90;38.03
44079;BME280;29744;49.078;12.878;2024-02-21T20:30:15;96132.50;;;13.90;38.18
44079;BME280;29744;49.078;12.878;2024-02-21T20:35:15;96130.13;;;13.89;37.96
44079;BME280;29744;49.078;12.878;2024-02-21T20:40:15;96118.56;;;13.88;38.02
44079;BME280;29744;49.078;12.878;2024-02-21T20:45:16;96113.50;;;13.86;37.75
44079;BME280;29744;49.078;12.878;2024-02-21T20:50:16;96112.38;;;13.88;38.05
44079;BME280;29744;49.078;12.878;2024-02-21T20:55:17;96092.72;;;13.87;37.75
44079;BME280;29744;49.078;12.878;2024-02-21T21:00:23;96084.63;;;13.87;37.84
44079;BME280;29744;49.078;12.878;2024-02-21T21:05:24;96088.13;;;13.88;38.03
44079;BME280;29744;49.078;12.878;2024-02-21T21:10:24;96078.91;;;13.89;38.08
44079;BME280;29744;49.078;12.878;2024-02-21T21:15:25;96082.41;;;13.89;38.04
44079;BME280;29744;49.078;12.878;2024-02-21T21:20:28;96072.88;;;13.92;38.28
44079;BME280;29744;49.078;12.878;2024-02-21T21:25:30;96068.59;;;13.91;38.28
44079;BME280;29744;49.078;12.878;2024-02-21T21:30:31;96060.19;;;13.92;38.20
44079;BME280;29744;49.078;12.878;2024-02-21T21:35:32;96037.81;;;13.92;38.27
44079;BME280;29744;49.078;12.878;2024-02-21T21:40:33;96039.41;;;13.93;37.89
44079;BME280;29744;49.078;12.878;2024-02-21T21:45:33;96042.88;;;13.93;38.16
44079;BME280;29744;49.078;12.878;2024-02-21T21:50:33;96022.91;;;13.94;38.00
44079;BME280;29744;49.078;12.878;2024-02-21T21:55:35;96010.53;;;13.93;37.95
44079;BME280;29744;49.078;12.878;2024-02-21T22:00:35;96014.03;;;13.94;38.43
44079;BME280;29744;49.078;12.878;2024-02-21T22:05:36;96022.44;;;13.92;37.80
44079;BME280;29744;49.078;12.878;2024-02-21T22:10:36;96000.88;;;13.92;37.75
44079;BME280;29744;49.078;12.878;2024-02-21T22:15:37;95979.31;;;13.92;38.27
44079;BME280;29744;49.078;12.878;2024-02-21T22:20:37;95973.91;;;13.92;38.28
44079;BME280;29744;49.078;12.878;2024-02-21T22:25:38;95958.88;;;13.91;37.71
44079;BME280;29744;49.078;12.878;2024-02-21T22:30:40;95944.59;;;13.91;37.72
44079;BME280;29744;49.078;12.878;2024-02-21T22:35:40;95951.91;;;13.90;37.92
44079;BME280;29744;49.078;12.878;2024-02-21T22:40:42;95959.19;;;13.90;38.23
44079;BME280;29744;49.078;12.878;2024-02-21T22:45:43;95955.72;;;13.89;38.18
44079;BME280;29744;49.078;12.878;2024-02-21T22:50:43;95948.75;;;13.88;37.90
44079;BME280;29744;49.078;12.878;2024-02-21T22:55:44;95947.97;;;13.88;37.86
44079;BME280;29744;49.078;12.878;2024-02-21T23:00:44;95947.97;;;13.88;37.96
44079;BME280;29744;49.078;12.878;2024-02-21T23:05:45;95927.50;;;13.86;38.03
44079;BME280;29744;49.078;12.878;2024-02-21T23:10:45;95912.47;;;13.85;37.72
44079;BME280;29744;49.078;12.878;2024-02-21T23:15:46;95907.84;;;13.86;38.10
44079;BME280;29744;49.078;12.878;2024-02-21T23:20:46;95900.09;;;13.84;38.12
44079;BME280;29744;49.078;12.878;2024-02-21T23:25:48;95888.53;;;13.84;38.41
44079;BME280;29744;49.078;12.878;2024-02-21T23:30:49;95897.75;;;13.83;37.89
44079;BME280;29744;49.078;12.878;2024-02-21T23:35:49;95889.66;;;13.83;38.20
44079;BME280;29744;49.078;12.878;2024-02-21T23:40:50;95891.56;;;13.82;37.96
44079;BME280;29744;49.078;12.878;2024-02-21T23:45:50;95878.41;;;13.81;37.87
44079;BME280;29744;49.078;12.878;2024-02-21T23:50:55;95876.50;;;13.81;37.89
44079;BME280;29744;49.078;12.878;2024-02-21T23:55:55;95878.41;;;13.81;38.36
